首页
METAR-TAF:

METAR-TAF

机场 :

赫羅納-布拉瓦海岸機場

赫罗纳, 西班牙

纬度: 41-54N, 经度: 002-46E, 海拔: 143米

当前天气观测

该预报发布于43分钟前的21:30 UTC
风速3节,风向西北,在西转西北之间变化
温度 13°C
湿度 77%
气压 1020 hPa
能见度10公里或以上
少量云层高于6000英尺

METAR: LEGE 152130Z 32003KT 290V350 9999 FEW060 13/09 Q1020

时间: 00:13 (22:13 UTC)

预报

该预报发布于5小时和13分钟前的17:00 UTC
预报有效从15日的 18点(UTC)到 16日的 18点(UTC)
风速4节,风向多变
能见度10公里或以上
散云层高于2500英尺
几率 30% :
短暂存在
从 16日的 02点(UTC)到 16日的 08点(UTC)
能見度: 3000
轻雾
成为
从 16日的 08点(UTC)到 16日的 10点(UTC)
风速10节,风向南转西南

TAF: LEGE 151700Z 1518/1618 VRB04KT 9999 SCT025 TX25/1613Z TN10/1606Z PROB30 TEMPO 1602/1608 3000 BR BECMG 1608/1610 20010KT

超过4000个机场的气象观测和天气预报(METAR&TAF报告)。

可查询的气象台以黄色和红色小点在地图上表示。

将鼠标移到小点上方,可查看气象台名称。

然后点击查看天气观测和预报。

如需切换地图:点击带黑十字的绿色按钮放大地图;点击带横线的绿色按钮缩小地图;或者点击绿色箭头查看邻近地区的地图。


METAR-TAF: